sensor_id;sensor_type;location;lat;lon;timestamp;pressure;altitude;pressure_sealevel;temperature;humidity
24746;BME280;12845;52.042;6.838;2022-09-09T00:00:12;68434.16;;;14.99;100.00
24746;BME280;12845;52.042;6.838;2022-09-09T00:02:38;68440.09;;;15.00;100.00
24746;BME280;12845;52.042;6.838;2022-09-09T00:07:51;68422.78;;;14.89;100.00
24746;BME280;12845;52.042;6.838;2022-09-09T00:10:26;68425.06;;;14.91;100.00
24746;BME280;12845;52.042;6.838;2022-09-09T00:15:59;68424.50;;;14.91;100.00
24746;BME280;12845;52.042;6.838;2022-09-09T00:21:07;68423.34;;;14.89;100.00
24746;BME280;12845;52.042;6.838;2022-09-09T00:23:40;68421.06;;;14.87;100.00
24746;BME280;12845;52.042;6.838;2022-09-09T00:33:43;68407.72;;;14.80;100.00
24746;BME280;12845;52.042;6.838;2022-09-09T00:38:49;68414.47;;;14.77;100.00
24746;BME280;12845;52.042;6.838;2022-09-09T00:54:20;68393.75;;;14.63;100.00
24746;BME280;12845;52.042;6.838;2022-09-09T00:59:45;68395.50;;;14.57;100.00
24746;BME280;12845;52.042;6.838;2022-09-09T01:04:57;68382.34;;;14.53;100.00
24746;BME280;12845;52.042;6.838;2022-09-09T01:07:25;68376.06;;;14.47;100.00
24746;BME280;12845;52.042;6.838;2022-09-09T01:09:59;68374.38;;;14.45;100.00
24746;BME280;12845;52.042;6.838;2022-09-09T01:12:32;68370.38;;;14.42;100.00
24746;BME280;12845;52.042;6.838;2022-09-09T01:30:56;68347.84;;;14.17;100.00
24746;BME280;12845;52.042;6.838;2022-09-09T01:33:22;68339.66;;;14.14;100.00
24746;BME280;12845;52.042;6.838;2022-09-09T01:35:55;68333.38;;;14.09;100.00
24746;BME280;12845;52.042;6.838;2022-09-09T01:38:23;68333.38;;;14.09;100.00
24746;BME280;12845;52.042;6.838;2022-09-09T01:43:18;68334.75;;;14.05;100.00
24746;BME280;12845;52.042;6.838;2022-09-09T01:48:10;68326.00;;;14.02;100.00
24746;BME280;12845;52.042;6.838;2022-09-09T01:50:36;68324.28;;;14.00;100.00
24746;BME280;12845;52.042;6.838;2022-09-09T01:55:33;68320.88;;;13.97;100.00
24746;BME280;12845;52.042;6.838;2022-09-09T02:03:57;68318.03;;;13.95;100.00
24746;BME280;12845;52.042;6.838;2022-09-09T02:06:30;68315.75;;;13.93;100.00
24746;BME280;12845;52.042;6.838;2022-09-09T02:09:01;68314.59;;;13.92;100.00
24746;BME280;12845;52.042;6.838;2022-09-09T02:11:28;68319.97;;;13.92;100.00
24746;BME280;12845;52.042;6.838;2022-09-09T02:16:39;68317.13;;;13.89;100.00
24746;BME280;12845;52.042;6.838;2022-09-09T02:24:05;68311.19;;;13.89;100.00
24746;BME280;12845;52.042;6.838;2022-09-09T02:26:34;68311.19;;;13.89;100.00
24746;BME280;12845;52.042;6.838;2022-09-09T02:29:03;68317.69;;;13.90;100.00
24746;BME280;12845;52.042;6.838;2022-09-09T02:36:29;68300.97;;;13.80;100.00
24746;BME280;12845;52.042;6.838;2022-09-09T02:38:59;68303.81;;;13.82;100.00
24746;BME280;12845;52.042;6.838;2022-09-09T02:41:37;68305.19;;;13.79;100.00
24746;BME280;12845;52.042;6.838;2022-09-09T02:52:21;68296.66;;;13.71;100.00
24746;BME280;12845;52.042;6.838;2022-09-09T02:54:55;68291.84;;;13.71;100.00
24746;BME280;12845;52.042;6.838;2022-09-09T02:57:26;68298.34;;;13.72;100.00
24746;BME280;12845;52.042;6.838;2022-09-09T02:59:53;68299.25;;;13.78;100.00
24746;BME280;12845;52.042;6.838;2022-09-09T03:02:20;68295.28;;;13.74;100.00
24746;BME280;12845;52.042;6.838;2022-09-09T03:04:45;68298.69;;;13.77;100.00
24746;BME280;12845;52.042;6.838;2022-09-09T03:07:16;68292.59;;;13.74;100.00
24746;BME280;12845;52.042;6.838;2022-09-09T03:16:57;68298.69;;;13.77;100.00
24746;BME280;12845;52.042;6.838;2022-09-09T03:19:26;68298.28;;;13.80;100.00
24746;BME280;12845;52.042;6.838;2022-09-09T03:21:52;68302.09;;;13.81;100.00
24746;BME280;12845;52.042;6.838;2022-09-09T03:24:18;68302.09;;;13.81;100.00
24746;BME280;12845;52.042;6.838;2022-09-09T03:26:43;68301.69;;;13.83;100.00
24746;BME280;12845;52.042;6.838;2022-09-09T03:31:38;68305.75;;;13.79;100.00
24746;BME280;12845;52.042;6.838;2022-09-09T03:34:05;68305.19;;;13.79;100.00
24746;BME280;12845;52.042;6.838;2022-09-09T03:36:31;68300.97;;;13.80;100.00
24746;BME280;12845;52.042;6.838;2022-09-09T03:38:56;68307.44;;;13.81;100.00
24746;BME280;12845;52.042;6.838;2022-09-09T03:41:23;68303.25;;;13.82;100.00
24746;BME280;12845;52.042;6.838;2022-09-09T03:46:18;68312.00;;;13.85;100.00
24746;BME280;12845;52.042;6.838;2022-09-09T03:48:44;68313.13;;;13.86;100.00
24746;BME280;12845;52.042;6.838;2022-09-09T03:51:11;68310.63;;;13.88;100.00
24746;BME280;12845;52.042;6.838;2022-09-09T03:56:03;68319.97;;;13.92;100.00
24746;BME280;12845;52.042;6.838;2022-09-09T03:58:32;68311.75;;;13.89;100.00
24746;BME280;12845;52.042;6.838;2022-09-09T04:01:04;68318.84;;;13.91;100.00
24746;BME280;12845;52.042;6.838;2022-09-09T04:03:29;68312.91;;;13.90;100.00
24746;BME280;12845;52.042;6.838;2022-09-09T04:05:57;68315.97;;;13.88;100.00
24746;BME280;12845;52.042;6.838;2022-09-09T04:10:52;68320.53;;;13.92;100.00
24746;BME280;12845;52.042;6.838;2022-09-09T04:13:18;68319.41;;;13.91;100.00
24746;BME280;12845;52.042;6.838;2022-09-09T04:20:40;68306.66;;;13.85;100.00
24746;BME280;12845;52.042;6.838;2022-09-09T04:23:05;68307.78;;;13.86;100.00
24746;BME280;12845;52.042;6.838;2022-09-09T04:25:31;68309.50;;;13.87;100.00
24746;BME280;12845;52.042;6.838;2022-09-09T04:30:23;68312.00;;;13.85;100.00
24746;BME280;12845;52.042;6.838;2022-09-09T04:32:48;68304.38;;;13.83;100.00
24746;BME280;12845;52.042;6.838;2022-09-09T04:35:14;68308.03;;;13.81;100.00
24746;BME280;12845;52.042;6.838;2022-09-09T04:37:45;68305.50;;;13.84;100.00
24746;BME280;12845;52.042;6.838;2022-09-09T04:42:36;68301.69;;;13.83;100.00
24746;BME280;12845;52.042;6.838;2022-09-09T04:45:02;68306.09;;;13.84;100.00
24746;BME280;12845;52.042;6.838;2022-09-09T04:49:53;68310.06;;;13.88;100.00
24746;BME280;12845;52.042;6.838;2022-09-09T04:52:20;68313.47;;;13.91;100.00
24746;BME280;12845;52.042;6.838;2022-09-09T04:57:11;68311.38;;;13.91;100.00
24746;BME280;12845;52.042;6.838;2022-09-09T04:59:37;68324.53;;;13.96;100.00
24746;BME280;12845;52.042;6.838;2022-09-09T05:02:04;68323.72;;;14.00;100.00
24746;BME280;12845;52.042;6.838;2022-09-09T05:06:55;68322.59;;;13.99;100.00
24746;BME280;12845;52.042;6.838;2022-09-09T05:09:21;68326.56;;;14.03;100.00
24746;BME280;12845;52.042;6.838;2022-09-09T05:14:11;68328.28;;;14.04;100.00
24746;BME280;12845;52.042;6.838;2022-09-09T05:19:02;68335.09;;;14.10;100.00
24746;BME280;12845;52.042;6.838;2022-09-09T05:21:28;68340.47;;;14.10;100.00
24746;BME280;12845;52.042;6.838;2022-09-09T05:23:55;68344.25;;;14.11;100.00
24746;BME280;12845;52.042;6.838;2022-09-09T05:26:21;68341.38;;;14.16;100.00
24746;BME280;12845;52.042;6.838;2022-09-09T05:28:48;68352.97;;;14.21;100.00
24746;BME280;12845;52.042;6.838;2022-09-09T05:31:16;68351.59;;;14.25;100.00
24746;BME280;12845;52.042;6.838;2022-09-09T05:33:43;68355.81;;;14.24;100.00
24746;BME280;12845;52.042;6.838;2022-09-09T05:36:13;68353.31;;;14.27;100.00
24746;BME280;12845;52.042;6.838;2022-09-09T05:38:39;68354.44;;;14.28;100.00
24746;BME280;12845;52.042;6.838;2022-09-09T05:48:33;68372.09;;;14.43;100.00
24746;BME280;12845;52.042;6.838;2022-09-09T05:50:59;68373.47;;;14.40;100.00
24746;BME280;12845;52.042;6.838;2022-09-09T05:53:26;68372.66;;;14.44;100.00
24746;BME280;12845;52.042;6.838;2022-09-09T05:56:08;68384.84;;;14.50;100.00
24746;BME280;12845;52.042;6.838;2022-09-09T05:58:38;68385.19;;;14.55;100.00
24746;BME280;12845;52.042;6.838;2022-09-09T06:01:09;68388.03;;;14.58;100.00
24746;BME280;12845;52.042;6.838;2022-09-09T06:03:36;68394.31;;;14.63;100.00
24746;BME280;12845;52.042;6.838;2022-09-09T06:06:07;68401.94;;;14.65;100.00
24746;BME280;12845;52.042;6.838;2022-09-09T06:08:34;68399.59;;;14.71;100.00
24746;BME280;12845;52.042;6.838;2022-09-09T06:16:04;68413.66;;;14.81;100.00
24746;BME280;12845;52.042;6.838;2022-09-09T06:21:00;68423.34;;;14.89;100.00
24746;BME280;12845;52.042;6.838;2022-09-09T06:23:27;68429.59;;;14.95;100.00
24746;BME280;12845;52.042;6.838;2022-09-09T06:26:07;68432.44;;;14.98;100.00
24746;BME280;12845;52.042;6.838;2022-09-09T06:28:35;68433.75;;;15.01;100.00
24746;BME280;12845;52.042;6.838;2022-09-09T06:33:27;68442.28;;;15.09;100.00
24746;BME280;12845;52.042;6.838;2022-09-09T06:35:55;68447.81;;;15.11;100.00
24746;BME280;12845;52.042;6.838;2022-09-09T06:38:22;68450.13;;;15.14;100.00
24746;BME280;12845;52.042;6.838;2022-09-09T06:40:55;68452.38;;;15.16;100.00
24746;BME280;12845;52.042;6.838;2022-09-09T06:43:22;68457.69;;;15.23;100.00
24746;BME280;12845;52.042;6.838;2022-09-09T06:48:19;68467.75;;;15.29;100.00
24746;BME280;12845;52.042;6.838;2022-09-09T06:50:44;68472.88;;;15.34;100.00
24746;BME280;12845;52.042;6.838;2022-09-09T06:53:10;68471.91;;;15.35;100.00
24746;BME280;12845;52.042;6.838;2022-09-09T06:58:00;68487.69;;;15.47;100.00
24746;BME280;12845;52.042;6.838;2022-09-09T07:00:26;68501.38;;;15.60;100.00
24746;BME280;12845;52.042;6.838;2022-09-09T07:02:51;68504.78;;;15.63;100.00
24746;BME280;12845;52.042;6.838;2022-09-09T07:05:17;68513.50;;;15.73;100.00
24746;BME280;12845;52.042;6.838;2022-09-09T07:10:08;68537.50;;;15.87;100.00
24746;BME280;12845;52.042;6.838;2022-09-09T07:12:33;68543.56;;;15.97;100.00
24746;BME280;12845;52.042;6.838;2022-09-09T07:14:59;68544.69;;;15.98;100.00
24746;BME280;12845;52.042;6.838;2022-09-09T07:19:49;68560.31;;;16.08;100.00
24746;BME280;12845;52.042;6.838;2022-09-09T07:24:41;68558.53;;;16.13;100.00
24746;BME280;12845;52.042;6.838;2022-09-09T07:34:23;68572.63;;;16.23;100.00
24746;BME280;12845;52.042;6.838;2022-09-09T07:41:45;68584.00;;;16.34;100.00
24746;BME280;12845;52.042;6.838;2022-09-09T07:44:14;68585.31;;;16.37;100.00
24746;BME280;12845;52.042;6.838;2022-09-09T07:46:40;68603.63;;;16.46;100.00
24746;BME280;12845;52.042;6.838;2022-09-09T07:49:07;68607.63;;;16.50;100.00
24746;BME280;12845;52.042;6.838;2022-09-09T07:51:35;68602.25;;;16.50;100.00
24746;BME280;12845;52.042;6.838;2022-09-09T07:54:04;68610.81;;;16.58;100.00
24746;BME280;12845;52.042;6.838;2022-09-09T07:56:31;68614.78;;;16.61;100.00
24746;BME280;12845;52.042;6.838;2022-09-09T07:58:57;68617.81;;;16.66;100.00
24746;BME280;12845;52.042;6.838;2022-09-09T08:03:56;68626.22;;;16.72;100.00
24746;BME280;12845;52.042;6.838;2022-09-09T08:06:25;68635.56;;;16.75;100.00
24746;BME280;12845;52.042;6.838;2022-09-09T08:08:52;68634.19;;;16.79;100.00
24746;BME280;12845;52.042;6.838;2022-09-09T08:11:18;68636.66;;;16.83;100.00
24746;BME280;12845;52.042;6.838;2022-09-09T08:16:12;68636.66;;;16.83;100.00
24746;BME280;12845;52.042;6.838;2022-09-09T08:23:38;68647.31;;;16.90;100.00
24746;BME280;12845;52.042;6.838;2022-09-09T08:26:06;68647.31;;;16.90;99.50
24746;BME280;12845;52.042;6.838;2022-09-09T08:33:33;68685.75;;;17.20;97.31
24746;BME280;12845;52.042;6.838;2022-09-09T08:38:24;68695.47;;;17.29;97.08
24746;BME280;12845;52.042;6.838;2022-09-09T08:40:53;68689.28;;;17.33;95.38
24746;BME280;12845;52.042;6.838;2022-09-09T08:43:25;68700.38;;;17.38;95.38
24746;BME280;12845;52.042;6.838;2022-09-09T08:46:04;68694.09;;;17.32;93.14
24746;BME280;12845;52.042;6.838;2022-09-09T08:48:58;68695.94;;;17.36;93.34
24746;BME280;12845;52.042;6.838;2022-09-09T08:51:27;68704.03;;;17.36;93.16
24746;BME280;12845;52.042;6.838;2022-09-09T08:53:57;68698.63;;;17.36;92.40
24746;BME280;12845;52.042;6.838;2022-09-09T08:58:53;68729.69;;;17.59;91.30
24746;BME280;12845;52.042;6.838;2022-09-09T09:11:50;68755.31;;;17.90;84.35
24746;BME280;12845;52.042;6.838;2022-09-09T09:17:05;68770.47;;;18.08;84.13
24746;BME280;12845;52.042;6.838;2022-09-09T09:19:34;68796.50;;;18.19;84.38
24746;BME280;12845;52.042;6.838;2022-09-09T09:27:16;68808.13;;;18.42;82.56
24746;BME280;12845;52.042;6.838;2022-09-09T09:29:44;68815.66;;;18.41;82.83
24746;BME280;12845;52.042;6.838;2022-09-09T09:32:16;68809.53;;;18.38;81.56
24746;BME280;12845;52.042;6.838;2022-09-09T09:34:49;68811.66;;;18.38;82.68
24746;BME280;12845;52.042;6.838;2022-09-09T09:37:17;68808.53;;;18.40;82.89
24746;BME280;12845;52.042;6.838;2022-09-09T09:42:15;68816.22;;;18.42;83.02
24746;BME280;12845;52.042;6.838;2022-09-09T09:44:42;68828.19;;;18.53;81.46
24746;BME280;12845;52.042;6.838;2022-09-09T09:49:33;68817.38;;;18.43;80.60
24746;BME280;12845;52.042;6.838;2022-09-09T09:52:06;68814.41;;;18.47;81.09
24746;BME280;12845;52.042;6.838;2022-09-09T09:54:41;68819.22;;;18.47;79.99
24746;BME280;12845;52.042;6.838;2022-09-09T09:57:15;68828.38;;;18.55;80.36
24746;BME280;12845;52.042;6.838;2022-09-09T09:59:41;68828.38;;;18.55;80.01
24746;BME280;12845;52.042;6.838;2022-09-09T10:02:24;68827.63;;;18.52;80.03
24746;BME280;12845;52.042;6.838;2022-09-09T10:07:33;68825.38;;;18.50;79.20
24746;BME280;12845;52.042;6.838;2022-09-09T10:22:49;68852.22;;;18.74;77.61
24746;BME280;12845;52.042;6.838;2022-09-09T10:25:30;68865.34;;;18.86;76.71
24746;BME280;12845;52.042;6.838;2022-09-09T10:28:17;68871.06;;;18.91;76.57
24746;BME280;12845;52.042;6.838;2022-09-09T10:31:02;68884.75;;;19.03;76.52
24746;BME280;12845;52.042;6.838;2022-09-09T10:34:16;68896.94;;;19.16;75.75
24746;BME280;12845;52.042;6.838;2022-09-09T10:36:47;68908.50;;;19.29;76.40
24746;BME280;12845;52.042;6.838;2022-09-09T10:42:04;68947.75;;;19.62;75.07
24746;BME280;12845;52.042;6.838;2022-09-09T10:47:26;68955.38;;;19.71;72.65
24746;BME280;12845;52.042;6.838;2022-09-09T10:55:10;68930.06;;;19.46;72.49
24746;BME280;12845;52.042;6.838;2022-09-09T10:57:46;68942.47;;;19.55;71.52
24746;BME280;12845;52.042;6.838;2022-09-09T11:03:40;68937.91;;;19.51;72.54
24746;BME280;12845;52.042;6.838;2022-09-09T11:06:14;68936.75;;;19.50;70.96
24746;BME280;12845;52.042;6.838;2022-09-09T11:08:42;68942.47;;;19.55;71.39
24746;BME280;12845;52.042;6.838;2022-09-09T11:18:55;68937.47;;;19.53;72.68
24746;BME280;12845;52.042;6.838;2022-09-09T11:21:28;68936.34;;;19.52;71.74
24746;BME280;12845;52.042;6.838;2022-09-09T11:24:02;68929.31;;;19.43;72.17
24746;BME280;12845;52.042;6.838;2022-09-09T11:39:44;68931.03;;;19.45;72.42
24746;BME280;12845;52.042;6.838;2022-09-09T11:42:21;68924.91;;;19.42;72.36
24746;BME280;12845;52.042;6.838;2022-09-09T11:44:47;68923.59;;;19.38;71.27
24746;BME280;12845;52.042;6.838;2022-09-09T11:49:48;68921.31;;;19.36;72.86
24746;BME280;12845;52.042;6.838;2022-09-09T11:52:36;68913.50;;;19.31;73.43
24746;BME280;12845;52.042;6.838;2022-09-09T11:55:29;68898.47;;;19.15;73.89
24746;BME280;12845;52.042;6.838;2022-09-09T11:58:04;68890.47;;;19.08;74.49
24746;BME280;12845;52.042;6.838;2022-09-09T12:00:39;68880.94;;;19.02;74.86
24746;BME280;12845;52.042;6.838;2022-09-09T12:06:14;68900.75;;;19.17;75.57
24746;BME280;12845;52.042;6.838;2022-09-09T12:08:49;68907.03;;;19.23;75.58
24746;BME280;12845;52.042;6.838;2022-09-09T12:11:27;68911.03;;;19.27;74.40
24746;BME280;12845;52.042;6.838;2022-09-09T12:21:46;68895.19;;;19.15;74.49
24746;BME280;12845;52.042;6.838;2022-09-09T12:24:41;68887.38;;;19.10;74.06
24746;BME280;12845;52.042;6.838;2022-09-09T12:27:20;68886.78;;;19.10;74.38
24746;BME280;12845;52.042;6.838;2022-09-09T12:29:54;68891.63;;;19.09;73.75
24746;BME280;12845;52.042;6.838;2022-09-09T12:32:26;68897.50;;;19.17;73.98
24746;BME280;12845;52.042;6.838;2022-09-09T12:40:03;68908.34;;;19.27;72.18
24746;BME280;12845;52.042;6.838;2022-09-09T12:42:29;68904.75;;;19.21;72.84
24746;BME280;12845;52.042;6.838;2022-09-09T12:44:57;68884.34;;;19.05;76.00
24746;BME280;12845;52.042;6.838;2022-09-09T12:47:28;68839.06;;;18.62;80.44
24746;BME280;12845;52.042;6.838;2022-09-09T12:49:56;68813.94;;;18.40;84.61
24746;BME280;12845;52.042;6.838;2022-09-09T12:52:32;68796.41;;;18.26;85.25
24746;BME280;12845;52.042;6.838;2022-09-09T12:55:03;68790.28;;;18.23;86.62
24746;BME280;12845;52.042;6.838;2022-09-09T12:57:35;68792.25;;;18.20;85.99
24746;BME280;12845;52.042;6.838;2022-09-09T13:00:07;68789.97;;;18.18;85.08
24746;BME280;12845;52.042;6.838;2022-09-09T13:02:34;68789.97;;;18.18;85.77
24746;BME280;12845;52.042;6.838;2022-09-09T13:07:40;68777.00;;;18.09;87.21
24746;BME280;12845;52.042;6.838;2022-09-09T13:10:05;68762.72;;;17.96;89.10
24746;BME280;12845;52.042;6.838;2022-09-09T13:12:31;68759.88;;;17.94;90.85
24746;BME280;12845;52.042;6.838;2022-09-09T13:17:27;68743.16;;;17.76;92.76
24746;BME280;12845;52.042;6.838;2022-09-09T13:19:56;68759.38;;;17.86;94.40
24746;BME280;12845;52.042;6.838;2022-09-09T13:25:02;68770.53;;;18.01;92.03
24746;BME280;12845;52.042;6.838;2022-09-09T13:27:34;68766.31;;;18.02;93.23
24746;BME280;12845;52.042;6.838;2022-09-09T13:30:26;68759.16;;;17.91;92.78
24746;BME280;12845;52.042;6.838;2022-09-09T13:35:56;68747.72;;;17.80;95.72
24746;BME280;12845;52.042;6.838;2022-09-09T13:38:22;68745.47;;;17.78;96.97
24746;BME280;12845;52.042;6.838;2022-09-09T13:43:24;68751.16;;;17.84;100.00
24746;BME280;12845;52.042;6.838;2022-09-09T13:46:24;68745.47;;;17.78;100.00
24746;BME280;12845;52.042;6.838;2022-09-09T13:49:00;68749.19;;;17.87;100.00
24746;BME280;12845;52.042;6.838;2022-09-09T13:51:43;68765.44;;;17.96;100.00
24746;BME280;12845;52.042;6.838;2022-09-09T13:54:13;68750.50;;;17.90;100.00
24746;BME280;12845;52.042;6.838;2022-09-09T13:56:40;68769.41;;;18.00;100.00
24746;BME280;12845;52.042;6.838;2022-09-09T13:59:10;68776.00;;;18.11;100.00
24746;BME280;12845;52.042;6.838;2022-09-09T14:01:36;68801.53;;;18.31;100.00
24746;BME280;12845;52.042;6.838;2022-09-09T14:04:02;68807.97;;;18.39;98.37
24746;BME280;12845;52.042;6.838;2022-09-09T14:06:29;68821.50;;;18.49;98.18
24746;BME280;12845;52.042;6.838;2022-09-09T14:08:55;68843.38;;;18.71;97.45
24746;BME280;12845;52.042;6.838;2022-09-09T14:11:21;68833.66;;;18.62;94.76
24746;BME280;12845;52.042;6.838;2022-09-09T14:13:49;68827.97;;;18.57;95.68
24746;BME280;12845;52.042;6.838;2022-09-09T14:16:16;68850.09;;;18.75;93.48
24746;BME280;12845;52.042;6.838;2022-09-09T14:18:43;68870.06;;;18.92;94.26
24746;BME280;12845;52.042;6.838;2022-09-09T14:21:09;68876.50;;;19.01;91.52
24746;BME280;12845;52.042;6.838;2022-09-09T14:23:35;68890.22;;;19.13;91.36
24746;BME280;12845;52.042;6.838;2022-09-09T14:26:00;68911.19;;;19.29;90.11
24746;BME280;12845;52.042;6.838;2022-09-09T14:28:26;68911.03;;;19.27;90.10
24746;BME280;12845;52.042;6.838;2022-09-09T14:30:51;68911.75;;;19.30;87.47
24746;BME280;12845;52.042;6.838;2022-09-09T14:33:17;68905.91;;;19.22;88.52
24746;BME280;12845;52.042;6.838;2022-09-09T14:35:42;68898.06;;;19.17;87.95
24746;BME280;12845;52.042;6.838;2022-09-09T14:38:09;68900.75;;;19.17;88.75
24746;BME280;12845;52.042;6.838;2022-09-09T14:40:36;68884.75;;;19.03;86.74
24746;BME280;12845;52.042;6.838;2022-09-09T14:43:03;68900.75;;;19.17;88.49
24746;BME280;12845;52.042;6.838;2022-09-09T14:47:54;68907.78;;;19.26;85.66
24746;BME280;12845;52.042;6.838;2022-09-09T14:50:21;68903.03;;;19.20;85.69
24746;BME280;12845;52.042;6.838;2022-09-09T14:52:47;68900.50;;;19.22;86.17
24746;BME280;12845;52.042;6.838;2022-09-09T14:55:13;68891.63;;;19.09;87.03
24746;BME280;12845;52.042;6.838;2022-09-09T15:00:06;68917.88;;;19.33;87.34
24746;BME280;12845;52.042;6.838;2022-09-09T15:02:32;68928.47;;;19.47;86.83
24746;BME280;12845;52.042;6.838;2022-09-09T15:04:57;68949.09;;;19.66;87.92
24746;BME280;12845;52.042;6.838;2022-09-09T15:07:26;68950.22;;;19.67;85.37
24746;BME280;12845;52.042;6.838;2022-09-09T15:09:53;68949.88;;;19.61;86.57
24746;BME280;12845;52.042;6.838;2022-09-09T15:12:19;68938.78;;;19.56;85.79
24746;BME280;12845;52.042;6.838;2022-09-09T15:14:45;68920.34;;;19.37;85.46
24746;BME280;12845;52.042;6.838;2022-09-09T15:17:12;68917.88;;;19.33;85.99
24746;BME280;12845;52.042;6.838;2022-09-09T15:19:37;68914.06;;;19.32;86.80
24746;BME280;12845;52.042;6.838;2022-09-09T15:22:04;68903.34;;;19.25;86.91
24746;BME280;12845;52.042;6.838;2022-09-09T15:24:31;68894.63;;;19.14;87.10
24746;BME280;12845;52.042;6.838;2022-09-09T15:26:57;68885.91;;;19.04;87.20
24746;BME280;12845;52.042;6.838;2022-09-09T15:29:23;68872.53;;;18.97;87.53
24746;BME280;12845;52.042;6.838;2022-09-09T15:31:49;68869.50;;;18.92;86.90
24746;BME280;12845;52.042;6.838;2022-09-09T15:34:14;68863.38;;;18.89;86.41
24746;BME280;12845;52.042;6.838;2022-09-09T15:36:44;68856.53;;;18.83;84.86
24746;BME280;12845;52.042;6.838;2022-09-09T15:39:12;68849.13;;;18.76;84.72
24746;BME280;12845;52.042;6.838;2022-09-09T15:44:06;68854.66;;;18.79;84.16
24746;BME280;12845;52.042;6.838;2022-09-09T15:46:36;68848.53;;;18.76;84.70
24746;BME280;12845;52.042;6.838;2022-09-09T15:49:04;68852.53;;;18.79;85.61
24746;BME280;12845;52.042;6.838;2022-09-09T15:51:30;68855.63;;;18.77;85.48
24746;BME280;12845;52.042;6.838;2022-09-09T15:53:59;68850.47;;;18.72;85.66
24746;BME280;12845;52.042;6.838;2022-09-09T15:56:25;68846.81;;;18.74;85.87
24746;BME280;12845;52.042;6.838;2022-09-09T15:58:52;68839.78;;;18.65;86.36
24746;BME280;12845;52.042;6.838;2022-09-09T16:01:18;68839.78;;;18.65;86.34
24746;BME280;12845;52.042;6.838;2022-09-09T16:03:44;68837.09;;;18.65;86.30
24746;BME280;12845;52.042;6.838;2022-09-09T16:06:13;68851.06;;;18.73;86.97
24746;BME280;12845;52.042;6.838;2022-09-09T16:08:43;68852.78;;;18.75;86.28
24746;BME280;12845;52.042;6.838;2022-09-09T16:13:39;68836.53;;;18.65;84.16
24746;BME280;12845;52.042;6.838;2022-09-09T16:16:05;68843.06;;;18.66;84.78
24746;BME280;12845;52.042;6.838;2022-09-09T16:18:41;68825.09;;;18.55;84.13
24746;BME280;12845;52.042;6.838;2022-09-09T16:23:36;68818.50;;;18.44;85.68
24746;BME280;12845;52.042;6.838;2022-09-09T16:26:02;68817.38;;;18.43;85.30
24746;BME280;12845;52.042;6.838;2022-09-09T16:28:28;68810.84;;;18.42;85.89
24746;BME280;12845;52.042;6.838;2022-09-09T16:30:53;68815.06;;;18.41;86.04
24746;BME280;12845;52.042;6.838;2022-09-09T16:33:18;68804.00;;;18.36;86.29
24746;BME280;12845;52.042;6.838;2022-09-09T16:35:44;68797.56;;;18.27;86.56
24746;BME280;12845;52.042;6.838;2022-09-09T16:38:09;68793.41;;;18.21;87.34
24746;BME280;12845;52.042;6.838;2022-09-09T16:40:38;68783.69;;;18.13;87.17
24746;BME280;12845;52.042;6.838;2022-09-09T16:43:04;68776.25;;;18.06;88.10
24746;BME280;12845;52.042;6.838;2022-09-09T16:45:31;68766.16;;;17.99;88.43
24746;BME280;12845;52.042;6.838;2022-09-09T16:47:57;68750.91;;;17.88;88.60
24746;BME280;12845;52.042;6.838;2022-09-09T16:50:23;68749.66;;;17.77;89.68
24746;BME280;12845;52.042;6.838;2022-09-09T16:52:51;68737.75;;;17.76;90.28
24746;BME280;12845;52.042;6.838;2022-09-09T16:55:16;68733.03;;;17.70;90.51
24746;BME280;12845;52.042;6.838;2022-09-09T16:57:41;68732.88;;;17.67;91.16
24746;BME280;12845;52.042;6.838;2022-09-09T17:00:07;68725.59;;;17.63;92.04
24746;BME280;12845;52.042;6.838;2022-09-09T17:02:33;68721.06;;;17.59;92.76
24746;BME280;12845;52.042;6.838;2022-09-09T17:04:59;68718.59;;;17.54;92.83
24746;BME280;12845;52.042;6.838;2022-09-09T17:07:24;68715.75;;;17.52;93.46
24746;BME280;12845;52.042;6.838;2022-09-09T17:09:50;68713.47;;;17.50;93.63
24746;BME280;12845;52.042;6.838;2022-09-09T17:12:15;68700.38;;;17.38;94.26
24746;BME280;12845;52.042;6.838;2022-09-09T17:17:06;68696.34;;;17.34;96.31
24746;BME280;12845;52.042;6.838;2022-09-09T17:21:58;68678.13;;;17.18;97.80
24746;BME280;12845;52.042;6.838;2022-09-09T17:24:24;68668.59;;;17.12;98.30
24746;BME280;12845;52.042;6.838;2022-09-09T17:26:51;68659.47;;;17.04;99.41
24746;BME280;12845;52.042;6.838;2022-09-09T17:29:17;68655.44;;;17.00;99.30
24746;BME280;12845;52.042;6.838;2022-09-09T17:34:08;68646.19;;;16.89;100.00
24746;BME280;12845;52.042;6.838;2022-09-09T17:36:34;68646.97;;;16.85;100.00
24746;BME280;12845;52.042;6.838;2022-09-09T17:39:01;68637.06;;;16.81;100.00
24746;BME280;12845;52.042;6.838;2022-09-09T17:41:35;68634.75;;;16.79;100.00
24746;BME280;12845;52.042;6.838;2022-09-09T17:44:01;68629.03;;;16.74;100.00
24746;BME280;12845;52.042;6.838;2022-09-09T17:46:39;68625.06;;;16.70;100.00
24746;BME280;12845;52.042;6.838;2022-09-09T17:51:34;68620.50;;;16.66;100.00
24746;BME280;12845;52.042;6.838;2022-09-09T17:54:05;68623.34;;;16.69;100.00
24746;BME280;12845;52.042;6.838;2022-09-09T17:56:34;68622.75;;;16.68;100.00
24746;BME280;12845;52.042;6.838;2022-09-09T17:59:01;68614.78;;;16.61;100.00
24746;BME280;12845;52.042;6.838;2022-09-09T18:03:59;68616.66;;;16.65;100.00
24746;BME280;12845;52.042;6.838;2022-09-09T18:06:38;68613.06;;;16.60;100.00
24746;BME280;12845;52.042;6.838;2022-09-09T18:11:34;68575.63;;;16.29;100.00
24746;BME280;12845;52.042;6.838;2022-09-09T18:14:03;68561.22;;;16.13;100.00
24746;BME280;12845;52.042;6.838;2022-09-09T18:16:31;68551.53;;;16.05;100.00
24746;BME280;12845;52.042;6.838;2022-09-09T18:18:58;68540.13;;;15.94;100.00
24746;BME280;12845;52.042;6.838;2022-09-09T18:21:24;68540.69;;;15.95;100.00
24746;BME280;12845;52.042;6.838;2022-09-09T18:24:00;68534.03;;;15.91;100.00